• Join FlightAware (Why Join?)
  • Login
  • US Flag 
04:55AM EDT


 

Airport Tracker/Info


-or-


 

Live Flight TrackerFlight Track Log ✈ NKS562 ✈ 05-May-2013 ✈ KLAS - KDEN

Flight Track Log - Related Links

Times and Time Zones

All times are in EDT time to prevent confusion due to time zone crossing. See the NKS562 flight status page for this flight to view local times or setup timezone preferences in your user account.

Time Position Orientation Groundspeed Altitude Reporting Facility
EDT Latitude Longitude Course Direction KTS MPH feet Rate Location/Type
11:32AM 36.0760 -115.1640 270° West 174 200 2,900  Level FlightAware
11:33AM 36.0770 -115.1960 272° West 183 211 4,200 2,160 Climbing FlightAware
11:33AM 36.0770 -115.2310 270° West 219 252 5,100 2,160 Climbing FlightAware
11:34AM 36.0790 -115.2630 274° West 239 275 6,200 2,820 Climbing FlightAware
11:34AM 36.0880 -115.2800 303° West 249 287 7,000 3,180 Climbing FlightAware
11:34AM 36.1030 -115.2890 334° Northwest 261 300 7,800 3,300 Climbing FlightAware
11:35AM 36.1320 -115.2950 351° North 262 302 9,200 3,600 Climbing FlightAware
11:35AM 36.1580 -115.2820 22° Northeast 267 307 10,500 3,300 Climbing FlightAware
11:35AM 36.1750 -115.2530 54° Northeast 272 313 11,700 2,400 Climbing FlightAware
11:36AM 36.1850 -115.2220 68° East 299 344 12,300 1,380 Climbing FlightAware
11:36AM 36.1970 -115.1500 78° East 349 402 13,100 1,500 Climbing FlightAware
11:37AM 36.1970 -115.0890 90° East 368 423 14,100 2,520 Climbing FlightAware
11:38AM 36.1980 -114.9700 89° East 379 436 16,700 2,580 Climbing FlightAware
11:38AM 36.1980 -114.9060 90° East 387 445 17,800 2,400 Climbing FlightAware
11:39AM 36.1990 -114.8160 89° East 394 453 19,500 2,280 Climbing FlightAware
11:40AM 36.1990 -114.7110 90° East 405 466 21,100 1,860 Climbing FlightAware
11:40AM 36.1980 -114.6160 91° East 421 484 22,200 1,680 Climbing FlightAware
11:41AM 36.1970 -114.5090 91° East 431 496 23,500 1,860 Climbing FlightAware
11:42AM 36.1950 -114.3950 91° East 437 503 25,000 1,860 Climbing FlightAware
11:42AM 36.1990 -114.3150 86° East 449 517 26,000 1,560 Climbing FlightAware
11:43AM 36.2060 -114.2880 72° East 456 525 26,200 1,020 Climbing FlightAware
11:43AM 36.2330 -114.2180 64° Northeast 467 537 26,700 1,080 Climbing FlightAware
11:44AM 36.2770 -114.1000 65° Northeast 483 556 27,600 1,260 Climbing FlightAware
11:44AM 36.3130 -114.0040 65° Northeast 489 563 28,500 1,320 Climbing FlightAware
11:45AM 36.3440 -113.9190 66° East 497 572 29,300 1,440 Climbing FlightAware
11:46AM 36.3840 -113.8110 65° Northeast 498 573 30,300 1,500 Climbing FlightAware
11:46AM 36.4230 -113.7040 66° East 500 575 31,300 1,560 Climbing FlightAware
11:47AM 36.4620 -113.5990 65° Northeast 496 571 32,400 1,500 Climbing FlightAware
11:48AM 36.5090 -113.4700 66° East 497 572 33,600 1,380 Climbing FlightAware
11:48AM 36.5380 -113.3900 66° East 495 570 34,300 960 Climbing FlightAware
11:49AM 36.5720 -113.2970 66° East 504 580 34,700 840 Climbing FlightAware
11:50AM 36.6040 -113.2080 66° East 504 580 35,300 1,260 Climbing FlightAware
11:50AM 36.6330 -113.1270 66° East 499 574 36,100 1,260 Climbing FlightAware
11:51AM 36.6670 -113.0340 65° Northeast 502 578 36,700 780 Climbing FlightAware
11:51AM 36.6940 -112.9600 66° East 500 575 37,000 300 Climbing FlightAware
11:52AM 36.7210 -112.8830 66° East 499 574 37,000  Level FlightAware
11:52AM 36.7580 -112.7780 66° East 500 575 37,000  Level FlightAware
11:53AM 36.7970 -112.6710 65° Northeast 499 574 37,000  Level FlightAware
11:54AM 36.8390 -112.5510 66° East 501 577 37,000  Level FlightAware
11:54AM 36.8660 -112.4760 66° East 501 577 37,000  Level FlightAware
11:55AM 36.9050 -112.3630 67° East 501 577 37,000  Level FlightAware
11:56AM 36.9420 -112.2590 66° East 502 578 37,000  Level FlightAware
11:56AM 36.9840 -112.1370 67° East 502 578 37,000  Level FlightAware
11:57AM 37.0120 -112.0580 66° East 501 577 37,000  Level FlightAware
11:57AM 37.0250 -112.0190 67° East 501 577 37,000  Level FlightAware
11:58AM 37.0750 -111.8790 66° East 502 578 37,000  Level FlightAware
11:58AM 37.0970 -111.8150 67° East 502 578 37,000  Level FlightAware
11:59AM 37.1290 -111.7250 66° East 502 578 37,000  Level FlightAware
12:00PM 37.1610 -111.6340 66° East 502 578 37,000  Level FlightAware
12:00PM 37.1930 -111.5440 66° East 502 578 37,000  Level FlightAware
12:01PM 37.2250 -111.4530 66° East 502 578 37,000  Level FlightAware
12:02PM 37.2580 -111.3620 65° Northeast 502 578 37,000  Level FlightAware
12:02PM 37.2900 -111.2720 66° East 502 578 37,000  Level FlightAware
12:03PM 37.3140 -111.2040 66° East 502 578 37,000  Level FlightAware
12:04PM 37.3460 -111.1130 66° East 502 578 37,000  Level FlightAware
12:04PM 37.3780 -111.0220 66° East 502 578 37,000  Level FlightAware
12:05PM 37.4020 -110.9540 66° East 502 578 37,000  Level FlightAware
12:05PM 37.4340 -110.8630 66° East 502 578 37,000  Level FlightAware
12:06PM 37.4580 -110.7950 66° East 502 578 37,000  Level FlightAware
12:07PM 37.4900 -110.7040 66° East 502 578 37,000  Level FlightAware
12:07PM 37.5230 -110.6130 65° Northeast 502 578 37,000  Level FlightAware
12:08PM 37.5470 -110.5450 66° East 502 578 37,000  Level FlightAware
12:08PM 37.6250 -110.2417 66° East 494 568 37,000  Level Denver Center
12:09PM 37.6831 -110.0622 68° East 495 570 37,000  Level Denver Center
12:10PM 37.7336 -109.9103 67° East 491 565 37,000  Level Denver Center
12:11PM 37.7903 -109.7300 68° East 493 567 37,000  Level Denver Center
12:12PM 37.8400 -109.5769 68° East 492 566 37,000  Level Denver Center
12:13PM 37.8967 -109.3997 68° East 487 560 37,000  Level Denver Center
12:14PM 37.9453 -109.2472 68° East 487 560 37,000  Level Denver Center
12:16PM 37.9931 -109.0933 68° East 488 562 37,000  Level Denver Center
12:17PM 38.0492 -108.9142 68° East 488 562 37,000  Level Denver Center
12:18PM 38.1022 -108.7478 68° East 495 570 37,000  Level Denver Center
12:24PM 38.4740 -107.8480 68° East 490 564 37,000  Level FlightAware
12:24PM 38.5260 -107.7210 62° Northeast 488 562 37,000 -240 Level FlightAware
12:25PM 38.5720 -107.6060 63° Northeast 487 560 36,700 -600 Descending FlightAware
12:25PM 38.5970 -107.5430 63° Northeast 486 559 36,300 -960 Descending FlightAware
12:26PM 38.6430 -107.4290 63° Northeast 486 559 35,600 -1,020 Descending FlightAware
12:27PM 38.6850 -107.3220 63° Northeast 481 554 34,900 -1,080 Descending FlightAware
12:27PM 38.7160 -107.2440 63° Northeast 484 557 34,400 -840 Descending FlightAware
12:29PM 38.8260 -106.9670 63° Northeast 491 565 33,000 -1,020 Descending FlightAware
12:30PM 38.8531 -106.8970 64° Northeast 486 559 32,200 -1,560 Descending FlightAware ADS-B
12:30PM 38.8846 -106.8170 63° Northeast 484 557 31,600 -1,080 Descending FlightAware ADS-B
12:31PM 38.9150 -106.7400 63° Northeast 474 545 31,100 -900 Descending FlightAware ADS-B
12:31PM 38.9443 -106.6640 64° Northeast 471 542 30,700 -840 Descending FlightAware ADS-B
12:32PM 38.9741 -106.5870 64° Northeast 462 532 30,300 -840 Descending FlightAware ADS-B
12:32PM 39.0017 -106.5160 63° Northeast 440 506 29,900 -840 Descending FlightAware ADS-B
12:33PM 39.0299 -106.4430 64° Northeast 441 507 29,500 -900 Descending FlightAware ADS-B
12:33PM 39.0582 -106.3680 64° Northeast 449 517 29,000 -1,020 Descending FlightAware ADS-B
12:34PM 39.0858 -106.2970 63° Northeast 447 514 28,500 -1,020 Descending FlightAware ADS-B
12:34PM 39.1132 -106.2250 64° Northeast 443 510 28,000 -1,020 Descending FlightAware ADS-B
12:35PM 39.1404 -106.1550 63° Northeast 434 499 27,500 -1,020 Descending FlightAware ADS-B
12:35PM 39.1666 -106.0860 64° Northeast 424 488 27,000 -1,020 Descending FlightAware ADS-B
12:36PM 39.2031 -105.9900 64° Northeast 419 482 26,300 -1,020 Descending FlightAware ADS-B
12:36PM 39.2285 -105.9230 64° Northeast 415 478 25,800 -1,140 Descending FlightAware ADS-B
12:37PM 39.2547 -105.8540 64° Northeast 410 472 25,200 -1,320 Descending FlightAware ADS-B
12:37PM 39.2798 -105.7880 64° Northeast 409 471 24,500 -1,620 Descending FlightAware ADS-B
12:38PM 39.3044 -105.7230 64° Northeast 402 463 23,600 -1,800 Descending FlightAware ADS-B
12:38PM 39.3288 -105.6580 64° Northeast 394 453 22,700 -1,740 Descending FlightAware ADS-B
12:39PM 39.3526 -105.5950 64° Northeast 387 445 21,900 -1,620 Descending FlightAware ADS-B
12:39PM 39.3764 -105.5320 64° Northeast 377 434 21,100 -1,440 Descending FlightAware ADS-B
12:40PM 39.3923 -105.4890 64° Northeast 367 422 20,700 -1,140 Descending FlightAware ADS-B
12:40PM 39.4011 -105.4700 59° Northeast 361 415 20,500 -1,080 Descending FlightAware ADS-B
12:40PM 39.4288 -105.4180 55° Northeast 346 398 20,000 -1,140 Descending FlightAware ADS-B
12:41PM 39.4562 -105.3660 56° Northeast 340 391 19,400 -1,380 Descending FlightAware ADS-B
12:41PM 39.4606 -105.3570 58° Northeast 340 391 19,200 -2,040 Descending FlightAware ADS-B
12:41PM 39.4639 -105.3490 62° Northeast 339 390 19,100 -1,440 Descending FlightAware ADS-B
12:41PM 39.4684 -105.3320 71° East 335 386 18,900 -1,320 Descending FlightAware ADS-B
12:42PM 39.4785 -105.2680 78° East 331 381 18,200 -1,080 Descending FlightAware ADS-B
12:42PM 39.4860 -105.2150 80° East 319 367 17,800 -840 Descending FlightAware
12:42PM 39.4885 -105.1990 79° East 319 367 17,700 -1,020 Descending FlightAware ADS-B
12:43PM 39.4961 -105.1450 80° East 303 349 17,200 -840 Descending FlightAware ADS-B
12:43PM 39.5034 -105.0920 80° East 281 323 16,900 -960 Descending FlightAware ADS-B
12:44PM 39.5071 -105.0680 79° East 278 320 16,500 -2,040 Descending FlightAware ADS-B
12:44PM 39.5105 -105.0570 68° East 279 321 16,200 -2,040 Descending FlightAware ADS-B
12:44PM 39.5137 -105.0510 55° Northeast 277 319 16,100 -1,440 Descending FlightAware ADS-B
12:44PM 39.5201 -105.0420 47° Northeast 276 318 15,900 -1,620 Descending FlightAware ADS-B
12:45PM 39.5521 -105.0130 35° Northeast 274 315 15,100 -1,560 Descending FlightAware ADS-B
12:45PM 39.5853 -104.9810 37° Northeast 272 313 14,300 -1,560 Descending FlightAware ADS-B
12:46PM 39.6145 -104.9520 37° Northeast 266 306 13,500 -1,500 Descending FlightAware ADS-B
12:46PM 39.6448 -104.9220 37° Northeast 266 306 12,800 -660 Descending FlightAware ADS-B
12:47PM 39.6772 -104.8910 36° Northeast 267 307 12,800  Level FlightAware ADS-B
12:47PM 39.7103 -104.8590 37° Northeast 269 310 12,800  Level FlightAware ADS-B
12:47PM 39.7239 -104.8470 34° Northeast 266 306 12,800 -300 Level FlightAware ADS-B
12:48PM 39.7360 -104.8410 21° North 263 303 12,700 -720 Descending FlightAware ADS-B
12:48PM 39.7550 -104.8400 North 256 295 12,500 -780 Descending FlightAware ADS-B
12:48PM 39.7739 -104.8410 358° North 255 293 12,300 -720 Descending FlightAware ADS-B
12:48PM 39.7861 -104.8410 360° North 255 293 12,200 -840 Descending FlightAware ADS-B
12:49PM 39.8184 -104.8400 North 260 299 11,800 -780 Descending FlightAware ADS-B
12:49PM 39.8530 -104.8400 360° North 263 303 11,500 -780 Descending FlightAware
12:50PM 39.8892 -104.8390 North 267 307 11,100 -780 Descending FlightAware ADS-B
12:51PM 39.9465 -104.8390 360° North 269 310 10,600 -660 Descending FlightAware ADS-B
12:51PM 39.9837 -104.8390 360° North 267 307 10,300 -660 Descending FlightAware ADS-B
12:51PM 40.0147 -104.8400 359° North 265 305 10,000 -780 Descending FlightAware ADS-B
12:52PM 40.0242 -104.8400 360° North 264 304 9,900 -780 Descending FlightAware ADS-B
12:52PM 40.0338 -104.8390 North 262 302 9,800 -900 Descending FlightAware ADS-B
12:52PM 40.0564 -104.8350 North 259 298 9,500 -1,080 Descending FlightAware ADS-B
12:52PM 40.0747 -104.8310 North 257 296 9,200 -1,200 Descending FlightAware ADS-B
12:53PM 40.0930 -104.8280 North 257 296 8,900 -840 Descending FlightAware ADS-B
12:53PM 40.1108 -104.8240 10° North 254 292 8,800 -360 Descending FlightAware ADS-B
12:53PM 40.1147 -104.8230 11° North 254 292 8,800  Level FlightAware ADS-B
12:53PM 40.1194 -104.8210 18° North 253 291 8,800 -780 Level FlightAware ADS-B
12:53PM 40.1230 -104.8180 33° Northeast 250 288 8,700 -900 Descending FlightAware ADS-B
12:53PM 40.1262 -104.8150 36° Northeast 247 284 8,700  Level FlightAware ADS-B
12:53PM 40.1287 -104.8120 43° Northeast 242 278 8,700  Level FlightAware ADS-B
12:53PM 40.1312 -104.8090 43° Northeast 237 273 8,700 720 Level FlightAware ADS-B
12:53PM 40.1337 -104.8040 57° Northeast 229 264 8,800 540 Climbing FlightAware ADS-B
12:53PM 40.1360 -104.7970 67° East 222 255 8,800  Level FlightAware ADS-B
12:53PM 40.1368 -104.7920 78° East 219 252 8,800  Level FlightAware ADS-B
12:53PM 40.1373 -104.7880 81° East 218 251 8,800  Level FlightAware ADS-B
12:54PM 40.1380 -104.7790 84° East 216 249 8,800  Level FlightAware ADS-B
12:54PM 40.1391 -104.7590 86° East 213 245 8,800  Level FlightAware ADS-B
12:54PM 40.1390 -104.7530 91° East 211 243 8,800  Level FlightAware ADS-B
12:54PM 40.1383 -104.7480 100° East 209 241 8,800  Level FlightAware ADS-B
12:54PM 40.1371 -104.7430 107° East 207 238 8,800  Level FlightAware ADS-B
12:54PM 40.1348 -104.7380 121° Southeast 205 236 8,800  Level FlightAware ADS-B
12:54PM 40.1326 -104.7350 134° Southeast 203 234 8,800  Level FlightAware ADS-B
12:54PM 40.1299 -104.7320 140° Southeast 202 232 8,800  Level FlightAware ADS-B
12:54PM 40.1270 -104.7290 142° Southeast 201 231 8,800 -600 Level FlightAware ADS-B
12:54PM 40.1217 -104.7260 157° South 195 224 8,700  Descending FlightAware ADS-B
12:55PM 40.1101 -104.7180 152° Southeast 183 211 8,800 180 Climbing FlightAware ADS-B
12:55PM 40.0981 -104.7100 153° Southeast 180 207 8,800  Level FlightAware ADS-B
12:55PM 40.0868 -104.7030 155° Southeast 180 207 8,800  Level FlightAware ADS-B
12:55PM 40.0798 -104.6980 151° Southeast 180 207 8,800  Level FlightAware ADS-B
12:55PM 40.0769 -104.6970 165° South 181 208 8,800  Level FlightAware ADS-B
12:55PM 40.0737 -104.6960 167° South 181 208 8,800  Level FlightAware ADS-B
12:56PM 40.0690 -104.6950 171° South 182 209 8,800 -600 Level FlightAware ADS-B
12:56PM 40.0650 -104.6950 180° South 182 209 8,700 -1,200 Descending FlightAware ADS-B
12:56PM 40.0520 -104.6950 180° South 187 215 8,400 -1,200 Descending FlightAware ADS-B
12:56PM 40.0389 -104.6950 180° South 189 217 8,100 -1,200 Descending FlightAware ADS-B
12:56PM 40.0252 -104.6950 180° South 191 220 7,800 -1,200 Descending FlightAware ADS-B
12:57PM 40.0170 -104.6950 180° South 192 221 7,600 -1,620 Descending FlightAware ADS-B
12:57PM 40.0089 -104.6950 180° South 196 226 7,300 -1,740 Descending FlightAware ADS-B
12:57PM 39.9971 -104.6950 180° South 199 229 7,000 -1,080 Descending FlightAware ADS-B
12:57PM 39.9827 -104.6950 180° South 192 221 6,800 -960 Descending FlightAware ADS-B
12:57PM 39.9687 -104.6950 180° South 187 215 6,500 -1,020 Descending FlightAware ADS-B
12:58PM 39.9627 -104.6950 180° South 178 205 6,400 -960 Descending FlightAware ADS-B
12:58PM 39.9534 -104.6950 180° South 170 196 6,200 -960 Descending FlightAware ADS-B
12:58PM 39.9424 -104.6960 184° South 158 182 6,000 -780 Descending FlightAware ADS-B
12:58PM 39.9361 -104.6960 180° South 149 171 5,900 -900 Descending FlightAware ADS-B
12:58PM 39.9287 -104.6960 180° South 138 159 5,700 -900 Descending FlightAware ADS-B
12:58PM 39.9227 -104.6960 180° South 143 165 5,600 -720 Descending FlightAware ADS-B
12:59PM 39.9169 -104.6960 180° South 140 161 5,500 -660 Descending FlightAware ADS-B
12:59PM 39.9108 -104.6960 180° South 140 161 5,400 -780 Descending FlightAware ADS-B
12:59PM 39.9066 -104.6960 180° South 137 158 5,300 -720 Descending FlightAware ADS-B
12:59PM 39.8998 -104.6960 180° South 141 162 5,200 -600 Descending FlightAware ADS-B
12:59PM 39.8873 -104.6960 180° South 143 165 5,000 -660 Descending FlightAware ADS-B